Overview Statistics Trail Chart Weather Telemetry Raw packets
 

This is the latest recevied weather packets stored in our database for station/object HP3ICC-22. If no packets are shown the sender has not sent any weather packets the latest 10 day(s).

<< 34 35 36 37 38 39 40 >>
Time Temp. Humidity Pressure Rain* Wind** Luminosity Snow
1777197415 8.89° C 92% 1013 hPa 0 mm - - -
1777196275 9.44° C 82% 1013 hPa 0 mm - - -
1777196215 9.44° C 82% 1013 hPa 0 mm - - -
1777195074 8.33° C 92% 1012 hPa 0 mm - - -
1777195014 8.33° C 92% 1012 hPa 0 mm - - -
1777193874 8.89° C 92% 1013 hPa 0 mm - - -
1777193814 8.89° C 92% 1013 hPa 0 mm - - -
1777192673 9.44° C 82% 1013 hPa 0 mm - - -
1777192613 9.44° C 82% 1013 hPa 0 mm - - -
1777191472 8.33° C 92% 1012 hPa 0 mm - - -
1777191412 8.33° C 92% 1012 hPa 0 mm - - -
1777190272 8.89° C 92% 1013 hPa 0 mm - - -
1777190211 8.89° C 92% 1013 hPa 0 mm - - -
1777189071 9.44° C 82% 1013 hPa 0 mm - - -
1777189011 9.44° C 82% 1013 hPa 0 mm - - -
1777187870 8.89° C 89% 1012 hPa 0 mm - - -
1777187810 8.89° C 89% 1012 hPa 0 mm - - -
1777186670 8.89° C 84% 1013 hPa 0 mm - - -
1777186610 8.89° C 84% 1013 hPa 0 mm - - -
1777185469 10° C 82% 1013 hPa 0 mm - - -
1777185409 10° C 82% 1013 hPa 0 mm - - -
1777184269 8.89° C 94% 1013 hPa 2.03 mm - - -
1777184209 8.89° C 94% 1013 hPa 2.03 mm - - -
1777183070 9.44° C 94% 1013 hPa 2.03 mm - - -
1777183009 9.44° C 94% 1013 hPa 2.03 mm - - -

* Rain latest hour (hover to see other rain measurements)
** Current wind speed in m/s (hover to see current wind gust speed)